createdAt,value
2019-06-23T00:02:02.811Z,28.60
2019-06-23T00:04:59.132Z,28.60
2019-06-23T00:07:39.584Z,28.70
2019-06-23T00:10:22.641Z,28.70
2019-06-23T00:13:08.927Z,28.70
2019-06-23T00:16:01.063Z,28.70
2019-06-23T00:18:43.921Z,28.80
2019-06-23T00:21:27.422Z,28.80
2019-06-23T00:24:26.306Z,28.70
2019-06-23T00:27:24.349Z,28.70
2019-06-23T00:30:16.277Z,28.70
2019-06-23T00:33:04.094Z,28.60
2019-06-23T00:35:53.660Z,28.60
2019-06-23T00:38:40.973Z,28.60
2019-06-23T00:41:27.685Z,28.60
2019-06-23T00:44:11.730Z,28.60
2019-06-23T00:46:58.807Z,28.70
2019-06-23T00:49:41.542Z,28.70
2019-06-23T00:52:22.042Z,28.70
2019-06-23T00:55:28.414Z,28.80
2019-06-23T00:58:17.637Z,29.10
2019-06-23T01:01:05.876Z,29.10
2019-06-23T01:03:45.430Z,29.00
2019-06-23T01:06:32.677Z,28.90
2019-06-23T01:09:27.610Z,28.90
2019-06-23T01:12:30.649Z,28.90
2019-06-23T01:15:11.569Z,28.90
2019-06-23T01:17:54.546Z,28.80
2019-06-23T01:20:47.933Z,29.00
2019-06-23T01:23:33.182Z,29.00
2019-06-23T01:26:18.157Z,29.00
2019-06-23T01:29:10.270Z,29.10
2019-06-23T01:31:52.472Z,29.00
2019-06-23T01:34:35.238Z,29.00
2019-06-23T01:37:45.451Z,29.00
2019-06-23T01:40:26.363Z,28.90
2019-06-23T01:43:13.561Z,28.90
2019-06-23T01:45:56.368Z,29.00
2019-06-23T01:48:42.587Z,29.00
2019-06-23T01:51:26.511Z,29.00
2019-06-23T01:54:39.060Z,29.10
2019-06-23T01:57:39.184Z,29.10
2019-06-23T02:00:18.645Z,29.10
2019-06-23T02:02:58.002Z,29.10
2019-06-23T02:05:37.402Z,29.10
2019-06-23T02:08:34.755Z,29.20
2019-06-23T02:11:19.202Z,29.40
2019-06-23T02:14:07.786Z,29.30
2019-06-23T02:16:55.534Z,29.20
2019-06-23T02:19:47.941Z,29.30
2019-06-23T02:25:44.633Z,29.20
2019-06-23T02:28:39.031Z,29.20
2019-06-23T02:31:24.283Z,29.20
2019-06-23T02:34:09.045Z,29.10
2019-06-23T02:36:50.414Z,29.10
2019-06-23T02:39:37.042Z,29.10
2019-06-23T02:42:34.979Z,29.20
2019-06-23T02:45:28.422Z,29.20
2019-06-23T02:48:15.436Z,29.30
2019-06-23T02:51:12.011Z,29.40
2019-06-23T02:54:27.223Z,29.30
2019-06-23T03:00:27.353Z,29.50
2019-06-23T03:03:19.523Z,29.50
2019-06-23T03:06:13.683Z,29.60
2019-06-23T03:08:57.855Z,29.60
2019-06-23T03:11:38.532Z,29.80
2019-06-23T03:14:34.635Z,29.80
2019-06-23T03:17:15.977Z,29.80
2019-06-23T03:19:59.698Z,29.80
2019-06-23T03:22:44.207Z,29.80
2019-06-23T03:26:02.864Z,29.70
2019-06-23T03:29:27.062Z,29.80
2019-06-23T03:31:50.053Z,29.90
2019-06-23T03:34:39.206Z,29.90
2019-06-23T03:37:45.880Z,29.80
2019-06-23T03:40:38.697Z,29.80
2019-06-23T03:43:19.036Z,29.90
2019-06-23T03:46:06.919Z,29.90
2019-06-23T03:49:04.673Z,29.90
2019-06-23T03:51:53.593Z,29.90
2019-06-23T03:54:51.282Z,30.00
2019-06-23T03:57:36.951Z,30.00
2019-06-23T04:03:19.105Z,30.20
2019-06-23T04:06:16.201Z,30.30
2019-06-23T04:09:08.602Z,30.30
2019-06-23T04:12:24.539Z,30.30
2019-06-23T04:14:41.541Z,30.40
2019-06-23T04:17:31.845Z,30.70
2019-06-23T04:23:55.882Z,30.60
2019-06-23T04:27:09.213Z,30.50
2019-06-23T04:29:53.564Z,30.50
2019-06-23T04:32:41.753Z,30.50
2019-06-23T04:35:35.456Z,30.50
2019-06-23T04:38:26.326Z,30.40
2019-06-23T04:41:37.535Z,30.40
2019-06-23T04:44:21.827Z,30.40
2019-06-23T04:47:26.024Z,30.40
2019-06-23T04:50:18.687Z,30.40
2019-06-23T04:53:13.025Z,30.20
2019-06-23T04:56:20.157Z,30.10
2019-06-23T04:59:05.684Z,30.10
2019-06-23T05:01:49.783Z,30.10
2019-06-23T05:07:42.702Z,30.00
2019-06-23T05:10:28.063Z,30.00
2019-06-23T05:13:10.108Z,30.00
2019-06-23T05:15:50.612Z,30.00
2019-06-23T05:18:49.697Z,30.00
2019-06-23T05:21:34.177Z,30.40
2019-06-23T05:24:18.452Z,30.40
2019-06-23T05:27:09.944Z,30.30
2019-06-23T05:29:50.570Z,30.40
2019-06-23T05:35:41.659Z,30.40
2019-06-23T05:38:26.268Z,30.50
2019-06-23T05:41:23.821Z,30.50
2019-06-23T05:44:29.942Z,30.60
2019-06-23T05:47:25.252Z,30.60
2019-06-23T05:50:07.403Z,30.70
2019-06-23T05:53:04.345Z,30.60
2019-06-23T05:58:48.676Z,30.70
2019-06-23T06:01:39.422Z,30.60
2019-06-23T06:04:27.102Z,30.60
2019-06-23T06:07:10.657Z,30.50
2019-06-23T06:10:07.335Z,30.50
2019-06-23T06:12:56.222Z,30.40
2019-06-23T06:15:46.974Z,30.40
2019-06-23T06:18:28.914Z,30.30
2019-06-23T06:21:10.554Z,30.30
2019-06-23T06:23:52.434Z,30.40
2019-06-23T06:26:48.245Z,30.80
2019-06-23T06:33:01.152Z,30.50
2019-06-23T06:35:54.590Z,30.40
2019-06-23T06:38:39.907Z,30.40
2019-06-23T06:41:35.673Z,30.30
2019-06-23T06:44:21.349Z,30.30
2019-06-23T06:47:16.178Z,30.30
2019-06-23T06:50:02.703Z,30.40
2019-06-23T06:52:46.989Z,30.40
2019-06-23T06:55:34.743Z,30.40
2019-06-23T06:58:16.737Z,30.40
2019-06-23T07:01:01.246Z,30.40
2019-06-23T07:03:52.582Z,30.40
2019-06-23T07:06:35.872Z,30.30
2019-06-23T07:09:16.731Z,30.30
2019-06-23T07:11:59.697Z,30.30
2019-06-23T07:14:51.586Z,30.30
2019-06-23T07:17:35.915Z,30.30
2019-06-23T07:23:36.294Z,30.20
2019-06-23T07:26:23.903Z,30.20
2019-06-23T07:29:10.509Z,30.20
2019-06-23T07:32:40.615Z,30.50
2019-06-23T07:35:36.104Z,30.40
2019-06-23T07:38:35.184Z,30.30
2019-06-23T07:41:22.657Z,30.30
2019-06-23T07:44:24.930Z,30.30
2019-06-23T07:47:22.205Z,30.30
2019-06-23T07:50:14.823Z,30.30
2019-06-23T07:55:48.828Z,30.30
2019-06-23T08:01:34.201Z,30.10
2019-06-23T08:04:19.280Z,30.10
2019-06-23T08:07:15.402Z,30.10
2019-06-23T08:14:01.452Z,30.10
2019-06-23T08:17:05.314Z,30.10
2019-06-23T08:19:53.026Z,30.00
2019-06-23T08:26:31.195Z,30.10
2019-06-23T08:29:34.636Z,30.00
2019-06-23T08:32:20.350Z,30.00
2019-06-23T08:35:03.326Z,30.00
2019-06-23T08:37:49.953Z,29.90
2019-06-23T08:40:38.313Z,30.00
2019-06-23T08:43:27.576Z,30.00
2019-06-23T08:46:14.189Z,29.90
2019-06-23T08:52:22.720Z,29.90
2019-06-23T08:55:07.799Z,29.80
2019-06-23T08:58:03.711Z,29.80
2019-06-23T09:00:57.199Z,29.80
2019-06-23T09:04:17.957Z,29.80
2019-06-23T09:07:29.776Z,29.80
2019-06-23T09:14:26.842Z,29.80
2019-06-23T09:17:26.641Z,29.80
2019-06-23T09:20:12.561Z,29.70
2019-06-23T09:22:57.094Z,29.80
2019-06-23T09:26:13.838Z,29.80
2019-06-23T09:29:11.895Z,29.80
2019-06-23T09:32:41.164Z,29.90
2019-06-23T09:36:14.966Z,29.90
2019-06-23T09:39:11.965Z,30.00
2019-06-23T09:41:54.511Z,30.00
2019-06-23T09:44:52.316Z,29.90
2019-06-23T09:47:35.462Z,29.80
2019-06-23T09:50:29.287Z,29.80
2019-06-23T09:53:14.346Z,29.80
2019-06-23T09:59:31.145Z,29.70
2019-06-23T10:02:12.194Z,29.60
2019-06-23T10:04:57.034Z,29.60
2019-06-23T10:07:42.070Z,29.40
2019-06-23T10:13:38.258Z,29.50
2019-06-23T10:16:21.872Z,29.60
2019-06-23T10:19:12.438Z,29.60
2019-06-23T10:22:03.439Z,29.50
2019-06-23T10:24:41.824Z,29.50
2019-06-23T10:27:31.546Z,29.40
2019-06-23T10:30:33.852Z,29.30
2019-06-23T10:33:27.495Z,29.40
2019-06-23T10:36:11.630Z,29.30
2019-06-23T10:39:16.090Z,29.30
2019-06-23T10:42:07.412Z,29.30
2019-06-23T10:44:51.047Z,29.30
2019-06-23T10:47:40.108Z,29.20
2019-06-23T10:53:45.272Z,29.20
2019-06-23T10:56:37.093Z,29.10
2019-06-23T10:59:22.150Z,29.00
2019-06-23T11:02:19.172Z,29.00
2019-06-23T11:05:07.779Z,29.10
2019-06-23T11:17:19.501Z,29.10
2019-06-23T11:20:03.372Z,29.30
2019-06-23T11:22:48.899Z,29.20
2019-06-23T11:25:34.739Z,29.10
2019-06-23T11:28:20.064Z,29.10
2019-06-23T11:31:13.388Z,29.10
2019-06-23T11:34:01.225Z,29.10
2019-06-23T11:36:51.368Z,29.10
2019-06-23T11:39:51.540Z,29.10
2019-06-23T11:42:27.091Z,29.00
2019-06-23T11:45:26.689Z,28.90
2019-06-23T11:48:38.355Z,28.90
2019-06-23T11:54:37.440Z,28.90
2019-06-23T11:57:21.380Z,28.90
2019-06-23T12:00:07.499Z,28.90
2019-06-23T12:03:08.400Z,28.80
2019-06-23T12:09:07.232Z,28.80
2019-06-23T12:11:41.066Z,28.70
2019-06-23T12:14:42.105Z,28.70
2019-06-23T12:17:39.717Z,28.70
2019-06-23T12:20:25.107Z,28.80
2019-06-23T12:23:12.462Z,28.80
2019-06-23T12:26:02.706Z,28.80
2019-06-23T12:28:47.183Z,28.70
2019-06-23T12:31:30.182Z,28.80
2019-06-23T12:34:25.085Z,28.80
2019-06-23T12:37:47.136Z,28.80
2019-06-23T12:43:47.121Z,28.80
2019-06-23T12:49:42.951Z,28.60
2019-06-23T12:52:29.852Z,28.60
2019-06-23T12:55:32.158Z,28.60
2019-06-23T12:58:46.740Z,28.60
2019-06-23T13:01:03.380Z,28.50
2019-06-23T13:04:04.505Z,28.50
2019-06-23T13:07:12.307Z,28.50
2019-06-23T13:10:39.570Z,28.40
2019-06-23T13:13:26.835Z,28.40
2019-06-23T13:16:13.918Z,28.30
2019-06-23T13:19:10.913Z,28.30
2019-06-23T13:22:07.888Z,28.20
2019-06-23T13:25:11.896Z,28.10
2019-06-23T13:28:03.231Z,28.10
2019-06-23T13:31:05.232Z,28.10
2019-06-23T13:33:50.292Z,28.60
2019-06-23T13:36:36.791Z,28.40
2019-06-23T13:42:36.380Z,28.20
2019-06-23T13:45:26.135Z,28.20
2019-06-23T13:48:13.514Z,28.20
2019-06-23T13:51:03.244Z,28.60
2019-06-23T13:53:48.940Z,28.40
2019-06-23T13:56:38.243Z,28.30
2019-06-23T14:02:46.693Z,28.10
2019-06-23T14:05:51.782Z,28.00
2019-06-23T14:08:54.619Z,27.90
2019-06-23T14:11:38.969Z,27.80
2019-06-23T14:17:23.511Z,27.80
2019-06-23T14:20:40.859Z,27.70
2019-06-23T14:26:11.522Z,27.80
2019-06-23T14:29:08.264Z,28.00
2019-06-23T14:32:09.304Z,28.00
2019-06-23T14:34:51.529Z,27.90
2019-06-23T14:37:43.598Z,27.90
2019-06-23T14:40:29.296Z,27.80
2019-06-23T14:43:17.855Z,27.80
2019-06-23T14:46:01.890Z,28.00
2019-06-23T14:48:52.934Z,27.90
2019-06-23T14:51:42.501Z,27.80
2019-06-23T14:54:43.995Z,27.70
2019-06-23T14:57:37.998Z,27.60
2019-06-23T15:00:29.808Z,27.50
2019-06-23T15:03:12.236Z,27.50
2019-06-23T15:06:08.386Z,27.50
2019-06-23T15:09:06.553Z,27.40
2019-06-23T15:12:05.370Z,27.30
2019-06-23T15:14:46.263Z,27.30
2019-06-23T15:17:33.841Z,27.30
2019-06-23T15:20:38.476Z,27.30
2019-06-23T15:23:16.204Z,27.70
2019-06-23T15:26:06.674Z,27.50
2019-06-23T15:28:54.504Z,27.40
2019-06-23T15:31:39.613Z,27.40
2019-06-23T15:34:33.563Z,27.30
2019-06-23T15:37:40.512Z,27.30
2019-06-23T15:40:26.582Z,27.30
2019-06-23T15:43:18.880Z,27.30
2019-06-23T15:46:00.262Z,27.20
2019-06-23T15:48:49.946Z,27.30
2019-06-23T15:51:43.033Z,27.30
2019-06-23T15:54:40.377Z,27.30
2019-06-23T15:57:27.114Z,27.20
2019-06-23T16:00:11.597Z,27.20
2019-06-23T16:03:01.548Z,27.20
2019-06-23T16:05:54.382Z,27.20
2019-06-23T16:08:42.474Z,27.30
2019-06-23T16:11:36.072Z,27.30
2019-06-23T16:14:24.733Z,27.20
2019-06-23T16:17:05.329Z,27.10
2019-06-23T16:19:59.434Z,27.10
2019-06-23T16:22:56.687Z,27.10
2019-06-23T16:26:07.094Z,27.10
2019-06-23T16:29:18.650Z,27.10
2019-06-23T16:32:39.522Z,27.10
2019-06-23T16:35:21.855Z,27.10
2019-06-23T16:38:05.777Z,27.10
2019-06-23T16:40:54.597Z,27.10
2019-06-23T16:43:48.246Z,27.30
2019-06-23T16:46:33.452Z,27.30
2019-06-23T16:49:36.432Z,27.30
2019-06-23T16:52:52.366Z,27.30
2019-06-23T16:55:06.665Z,27.20
2019-06-23T16:57:49.113Z,27.20
2019-06-23T17:00:29.937Z,27.20
2019-06-23T17:03:16.747Z,27.20
2019-06-23T17:05:54.839Z,27.20
2019-06-23T17:08:53.640Z,27.20
2019-06-23T17:11:32.043Z,27.20
2019-06-23T17:14:20.082Z,27.20
2019-06-23T17:17:00.494Z,27.20
2019-06-23T17:19:41.221Z,27.10
2019-06-23T17:22:49.651Z,27.10
2019-06-23T17:25:29.773Z,27.10
2019-06-23T17:28:11.360Z,27.10
2019-06-23T17:30:58.048Z,27.10
2019-06-23T17:33:53.205Z,27.10
2019-06-23T17:36:35.965Z,27.20
2019-06-23T17:39:17.866Z,27.20
2019-06-23T17:42:01.371Z,27.20
2019-06-23T17:44:44.110Z,27.50
2019-06-23T17:47:30.312Z,27.40
2019-06-23T17:50:13.024Z,27.30
2019-06-23T17:53:01.879Z,27.30
2019-06-23T17:55:49.064Z,27.30
2019-06-23T17:58:42.287Z,27.20
2019-06-23T18:01:14.345Z,27.20
2019-06-23T18:03:57.547Z,27.20
2019-06-23T18:06:38.279Z,27.20
2019-06-23T18:09:24.819Z,27.10
2019-06-23T18:12:14.643Z,27.10
2019-06-23T18:14:57.844Z,27.10
2019-06-23T18:17:41.343Z,27.00
2019-06-23T18:20:24.294Z,27.00
2019-06-23T18:23:05.324Z,27.00
2019-06-23T18:25:48.270Z,27.00
2019-06-23T18:28:30.603Z,27.00
2019-06-23T18:31:13.925Z,27.10
2019-06-23T18:33:53.980Z,27.00
2019-06-23T18:36:34.664Z,26.90
2019-06-23T18:39:24.087Z,26.90
2019-06-23T18:42:13.084Z,27.00
2019-06-23T18:44:55.310Z,27.00
2019-06-23T18:47:37.944Z,27.00
2019-06-23T18:50:17.781Z,27.00
2019-06-23T18:53:02.055Z,26.90
2019-06-23T18:55:46.764Z,26.90
2019-06-23T18:58:31.764Z,26.90
2019-06-23T19:01:22.697Z,27.00
2019-06-23T19:04:04.883Z,26.90
2019-06-23T19:06:47.667Z,26.90
2019-06-23T19:09:31.139Z,26.90
2019-06-23T19:12:17.042Z,26.90
2019-06-23T19:15:00.010Z,26.90
2019-06-23T19:17:46.816Z,26.90
2019-06-23T19:20:28.304Z,26.90
2019-06-23T19:23:09.156Z,26.90
2019-06-23T19:25:55.706Z,27.30
2019-06-23T19:28:38.844Z,27.20
2019-06-23T19:31:18.961Z,27.10
2019-06-23T19:33:58.082Z,27.00
2019-06-23T19:36:38.085Z,27.00
2019-06-23T19:39:20.066Z,27.00
2019-06-23T19:42:04.297Z,26.90
2019-06-23T19:44:48.279Z,26.90
2019-06-23T19:47:29.095Z,27.10
2019-06-23T19:50:17.400Z,27.00
2019-06-23T19:53:02.509Z,27.00
2019-06-23T19:55:46.718Z,26.90
2019-06-23T19:58:29.531Z,26.90
2019-06-23T20:01:10.367Z,26.90
2019-06-23T20:03:54.721Z,26.90
2019-06-23T20:06:35.591Z,26.90
2019-06-23T20:09:19.220Z,26.90
2019-06-23T20:12:00.563Z,26.80
2019-06-23T20:14:42.255Z,26.80
2019-06-23T20:17:23.986Z,26.70
2019-06-23T20:20:05.685Z,26.70
2019-06-23T20:22:52.389Z,26.70
2019-06-23T20:25:35.324Z,26.80
2019-06-23T20:28:18.490Z,27.20
2019-06-23T20:31:03.418Z,27.10
2019-06-23T20:33:48.191Z,27.00
2019-06-23T20:36:32.730Z,27.00
2019-06-23T20:39:12.710Z,26.90
2019-06-23T20:41:51.718Z,26.90
2019-06-23T20:44:41.926Z,26.90
2019-06-23T20:47:15.164Z,26.90
2019-06-23T20:49:56.141Z,27.10
2019-06-23T20:52:38.463Z,27.00
2019-06-23T20:55:16.903Z,26.90
2019-06-23T20:58:00.854Z,26.90
2019-06-23T21:00:40.796Z,26.90
2019-06-23T21:03:20.405Z,26.90
2019-06-23T21:06:04.578Z,26.90
2019-06-23T21:08:48.211Z,26.90
2019-06-23T21:11:30.283Z,26.90
2019-06-23T21:14:13.932Z,26.90
2019-06-23T21:16:55.756Z,26.90
2019-06-23T21:19:37.097Z,26.80
2019-06-23T21:22:15.469Z,26.80
2019-06-23T21:24:59.674Z,26.80
2019-06-23T21:27:40.158Z,26.80
2019-06-23T21:30:22.247Z,26.80
2019-06-23T21:33:04.619Z,26.70
2019-06-23T21:35:53.037Z,26.70
2019-06-23T21:38:34.526Z,26.70
2019-06-23T21:41:26.842Z,26.70
2019-06-23T21:44:07.882Z,26.70
2019-06-23T21:46:57.141Z,26.70
2019-06-23T21:49:41.530Z,26.70
2019-06-23T21:52:26.049Z,26.80
2019-06-23T21:55:07.839Z,26.70
2019-06-23T21:57:51.198Z,26.70
2019-06-23T22:00:48.871Z,26.70
2019-06-23T22:03:35.203Z,26.70
2019-06-23T22:06:17.218Z,26.60
2019-06-23T22:08:58.633Z,26.60
2019-06-23T22:11:37.067Z,26.60
2019-06-23T22:14:24.999Z,26.60
2019-06-23T22:17:06.958Z,26.60
2019-06-23T22:19:48.118Z,26.60
2019-06-23T22:22:30.380Z,26.60
2019-06-23T22:25:13.554Z,26.60
2019-06-23T22:27:54.429Z,26.60
2019-06-23T22:30:51.136Z,26.60
2019-06-23T22:33:33.484Z,26.60
2019-06-23T22:36:17.264Z,26.60
2019-06-23T22:39:01.872Z,26.60
2019-06-23T22:41:46.612Z,26.60
2019-06-23T22:44:29.012Z,26.60
2019-06-23T22:47:19.932Z,26.70
2019-06-23T22:50:02.549Z,26.60
2019-06-23T22:52:43.207Z,26.60
2019-06-23T22:55:27.448Z,26.60
2019-06-23T22:58:14.303Z,27.10
2019-06-23T23:01:02.310Z,27.00
2019-06-23T23:03:46.962Z,26.80
2019-06-23T23:06:35.309Z,26.70
2019-06-23T23:09:18.023Z,26.70
2019-06-23T23:11:58.504Z,26.60
2019-06-23T23:14:45.645Z,26.60
2019-06-23T23:17:27.306Z,26.50
2019-06-23T23:20:08.328Z,26.40
2019-06-23T23:22:50.177Z,26.30
2019-06-23T23:25:32.584Z,26.40
2019-06-23T23:28:27.255Z,26.30
2019-06-23T23:31:17.881Z,26.30
2019-06-23T23:34:06.808Z,26.30
2019-06-23T23:36:49.671Z,26.20
2019-06-23T23:39:33.517Z,26.20
2019-06-23T23:42:14.289Z,26.10
2019-06-23T23:44:55.822Z,26.10
2019-06-23T23:47:37.491Z,26.10
2019-06-23T23:50:17.357Z,26.10
2019-06-23T23:53:00.880Z,26.10
2019-06-23T23:55:45.449Z,26.00
2019-06-23T23:58:42.275Z,26.00
